sensor_id;sensor_type;location;lat;lon;timestamp;temperature;humidity
19868;DHT22;10096;51.112;6.776;2023-11-19T00:00:33;12.50;99.90
19868;DHT22;10096;51.112;6.776;2023-11-19T00:03:01;12.60;99.90
19868;DHT22;10096;51.112;6.776;2023-11-19T00:05:31;12.60;99.90
19868;DHT22;10096;51.112;6.776;2023-11-19T00:07:59;12.70;99.90
19868;DHT22;10096;51.112;6.776;2023-11-19T00:10:29;12.90;99.90
19868;DHT22;10096;51.112;6.776;2023-11-19T00:12:56;12.60;99.90
19868;DHT22;10096;51.112;6.776;2023-11-19T00:15:23;12.90;99.90
19868;DHT22;10096;51.112;6.776;2023-11-19T00:17:53;12.70;99.90
19868;DHT22;10096;51.112;6.776;2023-11-19T00:20:23;12.70;99.90
19868;DHT22;10096;51.112;6.776;2023-11-19T00:22:50;12.80;99.90
19868;DHT22;10096;51.112;6.776;2023-11-19T00:25:18;12.90;99.90
19868;DHT22;10096;51.112;6.776;2023-11-19T00:27:47;12.80;99.90
19868;DHT22;10096;51.112;6.776;2023-11-19T00:30:14;12.90;99.90
19868;DHT22;10096;51.112;6.776;2023-11-19T00:32:52;12.80;99.90
19868;DHT22;10096;51.112;6.776;2023-11-19T00:35:19;12.90;99.90
19868;DHT22;10096;51.112;6.776;2023-11-19T00:37:46;12.80;99.90
19868;DHT22;10096;51.112;6.776;2023-11-19T00:40:15;12.90;99.90
19868;DHT22;10096;51.112;6.776;2023-11-19T00:42:48;12.90;99.90
19868;DHT22;10096;51.112;6.776;2023-11-19T00:45:15;12.90;99.90
19868;DHT22;10096;51.112;6.776;2023-11-19T00:47:42;12.90;99.90
19868;DHT22;10096;51.112;6.776;2023-11-19T00:50:10;12.90;99.90
19868;DHT22;10096;51.112;6.776;2023-11-19T00:52:36;12.90;99.90
19868;DHT22;10096;51.112;6.776;2023-11-19T00:55:04;13.10;99.90
19868;DHT22;10096;51.112;6.776;2023-11-19T00:57:32;13.00;99.90
19868;DHT22;10096;51.112;6.776;2023-11-19T01:00:04;13.00;99.90
19868;DHT22;10096;51.112;6.776;2023-11-19T01:02:35;13.10;99.90
19868;DHT22;10096;51.112;6.776;2023-11-19T01:05:04;13.30;99.90
19868;DHT22;10096;51.112;6.776;2023-11-19T01:07:32;13.10;99.90
19868;DHT22;10096;51.112;6.776;2023-11-19T01:10:02;13.10;99.90
19868;DHT22;10096;51.112;6.776;2023-11-19T01:12:29;13.10;99.90
19868;DHT22;10096;51.112;6.776;2023-11-19T01:14:57;13.30;99.90
19868;DHT22;10096;51.112;6.776;2023-11-19T01:17:25;13.10;99.90
19868;DHT22;10096;51.112;6.776;2023-11-19T01:19:52;13.10;99.90
19868;DHT22;10096;51.112;6.776;2023-11-19T01:22:19;13.20;99.90
19868;DHT22;10096;51.112;6.776;2023-11-19T01:24:46;13.40;99.90
19868;DHT22;10096;51.112;6.776;2023-11-19T01:27:13;13.20;99.90
19868;DHT22;10096;51.112;6.776;2023-11-19T01:29:40;13.30;99.90
19868;DHT22;10096;51.112;6.776;2023-11-19T01:32:08;13.20;99.90
19868;DHT22;10096;51.112;6.776;2023-11-19T01:34:37;13.30;99.90
19868;DHT22;10096;51.112;6.776;2023-11-19T01:37:04;13.40;99.90
19868;DHT22;10096;51.112;6.776;2023-11-19T01:39:34;13.30;99.90
19868;DHT22;10096;51.112;6.776;2023-11-19T01:42:01;13.30;99.90
19868;DHT22;10096;51.112;6.776;2023-11-19T01:44:28;13.30;99.90
19868;DHT22;10096;51.112;6.776;2023-11-19T01:46:56;13.30;99.90
19868;DHT22;10096;51.112;6.776;2023-11-19T01:49:26;13.50;99.90
19868;DHT22;10096;51.112;6.776;2023-11-19T01:51:57;13.30;99.90
19868;DHT22;10096;51.112;6.776;2023-11-19T01:54:25;13.30;99.90
19868;DHT22;10096;51.112;6.776;2023-11-19T01:56:54;13.20;99.90
19868;DHT22;10096;51.112;6.776;2023-11-19T01:59:24;13.20;99.90
19868;DHT22;10096;51.112;6.776;2023-11-19T02:01:53;13.40;99.90
19868;DHT22;10096;51.112;6.776;2023-11-19T02:04:21;13.20;99.90
19868;DHT22;10096;51.112;6.776;2023-11-19T02:06:48;13.30;99.90
19868;DHT22;10096;51.112;6.776;2023-11-19T02:09:20;13.30;99.90
19868;DHT22;10096;51.112;6.776;2023-11-19T02:11:48;13.30;99.90
19868;DHT22;10096;51.112;6.776;2023-11-19T02:14:17;13.60;99.90
19868;DHT22;10096;51.112;6.776;2023-11-19T02:16:45;13.40;99.90
19868;DHT22;10096;51.112;6.776;2023-11-19T02:19:12;13.50;99.90
19868;DHT22;10096;51.112;6.776;2023-11-19T02:21:40;13.70;99.90
19868;DHT22;10096;51.112;6.776;2023-11-19T02:24:08;13.50;99.90
19868;DHT22;10096;51.112;6.776;2023-11-19T02:26:44;13.60;99.90
19868;DHT22;10096;51.112;6.776;2023-11-19T02:29:17;13.60;99.90
19868;DHT22;10096;51.112;6.776;2023-11-19T02:31:47;13.50;99.90
19868;DHT22;10096;51.112;6.776;2023-11-19T02:34:14;13.80;99.90
19868;DHT22;10096;51.112;6.776;2023-11-19T02:36:41;13.60;99.90
19868;DHT22;10096;51.112;6.776;2023-11-19T02:39:08;13.70;99.90
19868;DHT22;10096;51.112;6.776;2023-11-19T02:41:38;13.70;99.90
19868;DHT22;10096;51.112;6.776;2023-11-19T02:44:08;13.40;99.90
19868;DHT22;10096;51.112;6.776;2023-11-19T02:46:43;13.60;99.90
19868;DHT22;10096;51.112;6.776;2023-11-19T02:49:10;13.30;99.90
19868;DHT22;10096;51.112;6.776;2023-11-19T02:51:37;13.20;99.90
19868;DHT22;10096;51.112;6.776;2023-11-19T02:54:04;13.30;99.90
19868;DHT22;10096;51.112;6.776;2023-11-19T02:56:31;13.30;99.90
19868;DHT22;10096;51.112;6.776;2023-11-19T02:59:02;13.50;99.90
19868;DHT22;10096;51.112;6.776;2023-11-19T03:01:42;13.60;99.90
19868;DHT22;10096;51.112;6.776;2023-11-19T03:04:15;13.40;99.90
19868;DHT22;10096;51.112;6.776;2023-11-19T03:06:45;13.40;99.90
19868;DHT22;10096;51.112;6.776;2023-11-19T03:09:12;13.30;99.90
19868;DHT22;10096;51.112;6.776;2023-11-19T03:11:39;13.30;99.90
19868;DHT22;10096;51.112;6.776;2023-11-19T03:14:07;13.30;99.90
19868;DHT22;10096;51.112;6.776;2023-11-19T03:16:34;13.30;99.90
19868;DHT22;10096;51.112;6.776;2023-11-19T03:19:03;13.30;99.90
19868;DHT22;10096;51.112;6.776;2023-11-19T03:21:31;13.50;99.90
19868;DHT22;10096;51.112;6.776;2023-11-19T03:23:58;13.40;99.90
19868;DHT22;10096;51.112;6.776;2023-11-19T03:26:25;13.40;99.90
19868;DHT22;10096;51.112;6.776;2023-11-19T03:28:52;13.50;96.90
19868;DHT22;10096;51.112;6.776;2023-11-19T03:31:20;13.50;85.50
19868;DHT22;10096;51.112;6.776;2023-11-19T03:33:47;13.70;37.30
19868;DHT22;10096;51.112;6.776;2023-11-19T03:36:15;13.60;6.20
19868;DHT22;10096;51.112;6.776;2023-11-19T03:38:43;13.60;1.00
19868;DHT22;10096;51.112;6.776;2023-11-19T03:41:12;13.70;1.00
19868;DHT22;10096;51.112;6.776;2023-11-19T03:43:39;13.70;1.00
19868;DHT22;10096;51.112;6.776;2023-11-19T03:46:16;13.80;1.00
19868;DHT22;10096;51.112;6.776;2023-11-19T03:48:43;13.90;1.00
19868;DHT22;10096;51.112;6.776;2023-11-19T03:51:10;13.70;1.00
19868;DHT22;10096;51.112;6.776;2023-11-19T03:53:42;13.80;1.00
19868;DHT22;10096;51.112;6.776;2023-11-19T03:56:09;13.90;1.00
19868;DHT22;10096;51.112;6.776;2023-11-19T03:58:37;13.90;99.90
19868;DHT22;10096;51.112;6.776;2023-11-19T04:01:05;13.70;99.90
19868;DHT22;10096;51.112;6.776;2023-11-19T04:03:35;13.70;99.90
19868;DHT22;10096;51.112;6.776;2023-11-19T04:06:03;13.80;99.90
19868;DHT22;10096;51.112;6.776;2023-11-19T04:08:31;13.60;99.90
19868;DHT22;10096;51.112;6.776;2023-11-19T04:11:00;13.60;99.90
19868;DHT22;10096;51.112;6.776;2023-11-19T04:13:27;13.30;1.00
19868;DHT22;10096;51.112;6.776;2023-11-19T04:15:54;13.20;1.00
19868;DHT22;10096;51.112;6.776;2023-11-19T04:18:21;13.10;1.00
19868;DHT22;10096;51.112;6.776;2023-11-19T04:20:49;13.10;1.00
19868;DHT22;10096;51.112;6.776;2023-11-19T04:23:18;13.00;1.00
19868;DHT22;10096;51.112;6.776;2023-11-19T04:25:45;12.50;1.00
19868;DHT22;10096;51.112;6.776;2023-11-19T04:28:14;12.80;62.10
19868;DHT22;10096;51.112;6.776;2023-11-19T04:30:45;12.60;99.90
19868;DHT22;10096;51.112;6.776;2023-11-19T04:33:12;12.60;99.90
19868;DHT22;10096;51.112;6.776;2023-11-19T04:35:40;12.80;99.90
19868;DHT22;10096;51.112;6.776;2023-11-19T04:38:07;12.60;99.90
19868;DHT22;10096;51.112;6.776;2023-11-19T04:40:34;12.50;99.90
19868;DHT22;10096;51.112;6.776;2023-11-19T04:43:01;12.60;99.90
19868;DHT22;10096;51.112;6.776;2023-11-19T04:45:38;12.50;99.90
19868;DHT22;10096;51.112;6.776;2023-11-19T04:48:05;12.50;99.90
19868;DHT22;10096;51.112;6.776;2023-11-19T04:50:32;12.50;99.90
19868;DHT22;10096;51.112;6.776;2023-11-19T04:52:59;12.70;99.90
19868;DHT22;10096;51.112;6.776;2023-11-19T04:55:26;12.90;99.90
19868;DHT22;10096;51.112;6.776;2023-11-19T04:57:54;12.70;99.90
19868;DHT22;10096;51.112;6.776;2023-11-19T05:00:21;12.70;98.60
19868;DHT22;10096;51.112;6.776;2023-11-19T05:02:49;12.60;81.50
19868;DHT22;10096;51.112;6.776;2023-11-19T05:05:17;12.60;48.00
19868;DHT22;10096;51.112;6.776;2023-11-19T05:07:44;12.80;78.60
19868;DHT22;10096;51.112;6.776;2023-11-19T05:10:11;12.70;39.00
19868;DHT22;10096;51.112;6.776;2023-11-19T05:12:37;13.00;31.30
19868;DHT22;10096;51.112;6.776;2023-11-19T05:15:05;12.80;9.00
19868;DHT22;10096;51.112;6.776;2023-11-19T05:17:33;12.80;1.00
19868;DHT22;10096;51.112;6.776;2023-11-19T05:20:01;12.70;1.00
19868;DHT22;10096;51.112;6.776;2023-11-19T05:22:28;12.70;1.00
19868;DHT22;10096;51.112;6.776;2023-11-19T05:24:55;12.70;1.00
19868;DHT22;10096;51.112;6.776;2023-11-19T05:27:22;12.70;1.00
19868;DHT22;10096;51.112;6.776;2023-11-19T05:29:50;12.90;1.00
19868;DHT22;10096;51.112;6.776;2023-11-19T05:32:17;12.60;1.00
19868;DHT22;10096;51.112;6.776;2023-11-19T05:34:44;12.60;1.00
19868;DHT22;10096;51.112;6.776;2023-11-19T05:37:12;12.50;1.00
19868;DHT22;10096;51.112;6.776;2023-11-19T05:39:40;12.50;1.00
19868;DHT22;10096;51.112;6.776;2023-11-19T05:42:07;12.50;1.00
19868;DHT22;10096;51.112;6.776;2023-11-19T05:44:35;12.50;1.00
19868;DHT22;10096;51.112;6.776;2023-11-19T05:47:02;12.60;1.00
19868;DHT22;10096;51.112;6.776;2023-11-19T05:49:29;12.40;1.00
19868;DHT22;10096;51.112;6.776;2023-11-19T05:51:58;12.40;1.00
19868;DHT22;10096;51.112;6.776;2023-11-19T05:54:31;12.50;1.00
19868;DHT22;10096;51.112;6.776;2023-11-19T05:57:04;12.50;1.00
19868;DHT22;10096;51.112;6.776;2023-11-19T05:59:35;12.40;1.00
19868;DHT22;10096;51.112;6.776;2023-11-19T06:02:04;12.40;1.00
19868;DHT22;10096;51.112;6.776;2023-11-19T06:04:34;12.40;99.90
19868;DHT22;10096;51.112;6.776;2023-11-19T06:07:01;12.50;99.90
19868;DHT22;10096;51.112;6.776;2023-11-19T06:09:32;12.40;99.90
19868;DHT22;10096;51.112;6.776;2023-11-19T06:11:59;12.50;99.90
19868;DHT22;10096;51.112;6.776;2023-11-19T06:14:27;12.60;99.90
19868;DHT22;10096;51.112;6.776;2023-11-19T06:16:55;12.40;99.90
19868;DHT22;10096;51.112;6.776;2023-11-19T06:19:22;12.60;99.90
19868;DHT22;10096;51.112;6.776;2023-11-19T06:21:50;12.40;99.90
19868;DHT22;10096;51.112;6.776;2023-11-19T06:24:17;12.30;99.90
19868;DHT22;10096;51.112;6.776;2023-11-19T06:26:46;12.50;99.90
19868;DHT22;10096;51.112;6.776;2023-11-19T06:29:13;12.40;99.90
19868;DHT22;10096;51.112;6.776;2023-11-19T06:31:44;12.00;99.90
19868;DHT22;10096;51.112;6.776;2023-11-19T06:34:11;12.20;99.90
19868;DHT22;10096;51.112;6.776;2023-11-19T06:36:38;12.20;99.90
19868;DHT22;10096;51.112;6.776;2023-11-19T06:39:05;12.10;99.90
19868;DHT22;10096;51.112;6.776;2023-11-19T06:41:33;12.10;99.90
19868;DHT22;10096;51.112;6.776;2023-11-19T06:44:05;12.10;99.90
19868;DHT22;10096;51.112;6.776;2023-11-19T06:46:32;12.10;99.90
19868;DHT22;10096;51.112;6.776;2023-11-19T06:49:03;12.20;99.90
19868;DHT22;10096;51.112;6.776;2023-11-19T06:51:30;12.00;99.90
19868;DHT22;10096;51.112;6.776;2023-11-19T06:53:57;12.20;92.40
19868;DHT22;10096;51.112;6.776;2023-11-19T06:56:25;12.00;1.00
19868;DHT22;10096;51.112;6.776;2023-11-19T06:58:55;12.00;1.00
19868;DHT22;10096;51.112;6.776;2023-11-19T07:01:24;12.10;1.00
19868;DHT22;10096;51.112;6.776;2023-11-19T07:03:51;12.10;1.00
19868;DHT22;10096;51.112;6.776;2023-11-19T07:06:18;11.90;1.00
19868;DHT22;10096;51.112;6.776;2023-11-19T07:08:48;12.10;1.00
19868;DHT22;10096;51.112;6.776;2023-11-19T07:11:16;12.10;22.80
19868;DHT22;10096;51.112;6.776;2023-11-19T07:13:45;12.00;57.80
19868;DHT22;10096;51.112;6.776;2023-11-19T07:16:14;12.00;70.40
19868;DHT22;10096;51.112;6.776;2023-11-19T07:18:45;12.00;1.00
19868;DHT22;10096;51.112;6.776;2023-11-19T07:21:15;11.90;1.00
19868;DHT22;10096;51.112;6.776;2023-11-19T07:23:42;11.90;1.00
19868;DHT22;10096;51.112;6.776;2023-11-19T07:26:10;12.20;1.00
19868;DHT22;10096;51.112;6.776;2023-11-19T07:28:39;12.30;99.90
19868;DHT22;10096;51.112;6.776;2023-11-19T07:31:10;12.40;14.10
19868;DHT22;10096;51.112;6.776;2023-11-19T07:33:41;12.80;1.00
19868;DHT22;10096;51.112;6.776;2023-11-19T07:36:11;12.90;1.00
19868;DHT22;10096;51.112;6.776;2023-11-19T07:38:38;13.00;1.00
19868;DHT22;10096;51.112;6.776;2023-11-19T07:41:05;13.10;99.90
19868;DHT22;10096;51.112;6.776;2023-11-19T07:43:34;13.10;99.90
19868;DHT22;10096;51.112;6.776;2023-11-19T07:46:01;13.20;99.90
19868;DHT22;10096;51.112;6.776;2023-11-19T07:48:30;13.20;99.90
19868;DHT22;10096;51.112;6.776;2023-11-19T07:50:57;13.00;99.90
19868;DHT22;10096;51.112;6.776;2023-11-19T07:53:28;12.80;99.90
19868;DHT22;10096;51.112;6.776;2023-11-19T07:55:55;12.80;99.90
19868;DHT22;10096;51.112;6.776;2023-11-19T07:58:26;12.90;99.90
19868;DHT22;10096;51.112;6.776;2023-11-19T08:00:53;12.90;99.90
19868;DHT22;10096;51.112;6.776;2023-11-19T08:03:21;12.90;99.90
19868;DHT22;10096;51.112;6.776;2023-11-19T08:05:51;12.80;68.90
19868;DHT22;10096;51.112;6.776;2023-11-19T08:08:21;12.80;57.20
19868;DHT22;10096;51.112;6.776;2023-11-19T08:10:50;12.90;44.20
19868;DHT22;10096;51.112;6.776;2023-11-19T08:13:18;13.00;42.30
19868;DHT22;10096;51.112;6.776;2023-11-19T08:15:46;13.00;10.90
19868;DHT22;10096;51.112;6.776;2023-11-19T08:18:13;13.20;3.00
19868;DHT22;10096;51.112;6.776;2023-11-19T08:20:40;13.30;1.00
19868;DHT22;10096;51.112;6.776;2023-11-19T08:23:11;13.20;1.00
19868;DHT22;10096;51.112;6.776;2023-11-19T08:25:38;13.40;1.00
19868;DHT22;10096;51.112;6.776;2023-11-19T08:28:07;13.40;1.00
19868;DHT22;10096;51.112;6.776;2023-11-19T08:30:34;13.20;1.00
19868;DHT22;10096;51.112;6.776;2023-11-19T08:33:01;13.50;1.00
19868;DHT22;10096;51.112;6.776;2023-11-19T08:35:29;13.40;1.00
19868;DHT22;10096;51.112;6.776;2023-11-19T08:37:56;13.30;1.00
19868;DHT22;10096;51.112;6.776;2023-11-19T08:40:24;13.40;1.00
19868;DHT22;10096;51.112;6.776;2023-11-19T08:42:51;13.50;1.00
19868;DHT22;10096;51.112;6.776;2023-11-19T08:45:20;13.60;1.00
19868;DHT22;10096;51.112;6.776;2023-11-19T08:47:48;13.50;1.00
19868;DHT22;10096;51.112;6.776;2023-11-19T08:50:15;13.50;1.00
19868;DHT22;10096;51.112;6.776;2023-11-19T08:52:46;13.60;1.00
19868;DHT22;10096;51.112;6.776;2023-11-19T08:55:16;13.70;1.00
19868;DHT22;10096;51.112;6.776;2023-11-19T08:57:44;13.50;1.00
19868;DHT22;10096;51.112;6.776;2023-11-19T09:00:14;13.60;1.00
19868;DHT22;10096;51.112;6.776;2023-11-19T09:02:42;13.60;1.00
19868;DHT22;10096;51.112;6.776;2023-11-19T09:05:09;13.50;1.00
19868;DHT22;10096;51.112;6.776;2023-11-19T09:07:37;13.60;1.00
19868;DHT22;10096;51.112;6.776;2023-11-19T09:10:04;13.70;1.00
19868;DHT22;10096;51.112;6.776;2023-11-19T09:12:34;13.50;1.00
19868;DHT22;10096;51.112;6.776;2023-11-19T09:15:01;13.50;1.00
19868;DHT22;10096;51.112;6.776;2023-11-19T09:17:29;13.50;1.00
19868;DHT22;10096;51.112;6.776;2023-11-19T09:19:58;13.50;1.00
19868;DHT22;10096;51.112;6.776;2023-11-19T09:22:25;13.50;1.00
19868;DHT22;10096;51.112;6.776;2023-11-19T09:24:51;13.50;1.00
19868;DHT22;10096;51.112;6.776;2023-11-19T09:27:18;13.60;1.00
19868;DHT22;10096;51.112;6.776;2023-11-19T09:29:46;13.70;1.00
19868;DHT22;10096;51.112;6.776;2023-11-19T09:32:14;13.90;1.00
19868;DHT22;10096;51.112;6.776;2023-11-19T09:34:41;13.80;1.00
19868;DHT22;10096;51.112;6.776;2023-11-19T09:37:09;13.70;1.00
19868;DHT22;10096;51.112;6.776;2023-11-19T09:39:36;13.70;1.00
19868;DHT22;10096;51.112;6.776;2023-11-19T09:42:04;14.00;1.00
19868;DHT22;10096;51.112;6.776;2023-11-19T09:44:33;13.80;1.00
19868;DHT22;10096;51.112;6.776;2023-11-19T09:47:00;13.90;1.00
19868;DHT22;10096;51.112;6.776;2023-11-19T09:49:28;14.10;1.00
19868;DHT22;10096;51.112;6.776;2023-11-19T09:51:56;14.30;1.00
19868;DHT22;10096;51.112;6.776;2023-11-19T09:54:25;14.20;1.00
19868;DHT22;10096;51.112;6.776;2023-11-19T09:56:54;14.20;1.00
19868;DHT22;10096;51.112;6.776;2023-11-19T09:59:25;14.20;1.00
19868;DHT22;10096;51.112;6.776;2023-11-19T10:01:56;14.20;1.00
19868;DHT22;10096;51.112;6.776;2023-11-19T10:04:24;14.50;1.00
19868;DHT22;10096;51.112;6.776;2023-11-19T10:06:55;14.40;1.00
19868;DHT22;10096;51.112;6.776;2023-11-19T10:09:22;14.60;1.00
19868;DHT22;10096;51.112;6.776;2023-11-19T10:11:54;14.80;1.00
19868;DHT22;10096;51.112;6.776;2023-11-19T10:14:23;14.80;1.00
19868;DHT22;10096;51.112;6.776;2023-11-19T10:16:50;14.80;99.90
19868;DHT22;10096;51.112;6.776;2023-11-19T10:19:19;14.70;99.90
19868;DHT22;10096;51.112;6.776;2023-11-19T10:21:47;14.90;99.90
19868;DHT22;10096;51.112;6.776;2023-11-19T10:24:14;14.80;99.90
19868;DHT22;10096;51.112;6.776;2023-11-19T10:26:41;14.80;99.90
19868;DHT22;10096;51.112;6.776;2023-11-19T10:29:12;14.70;99.90
19868;DHT22;10096;51.112;6.776;2023-11-19T10:31:39;14.80;99.90
19868;DHT22;10096;51.112;6.776;2023-11-19T10:34:24;14.60;99.90
19868;DHT22;10096;51.112;6.776;2023-11-19T10:36:55;14.50;1.00
19868;DHT22;10096;51.112;6.776;2023-11-19T10:39:51;14.60;99.90
19868;DHT22;10096;51.112;6.776;2023-11-19T10:42:20;14.70;99.90
19868;DHT22;10096;51.112;6.776;2023-11-19T10:44:50;14.80;99.90
19868;DHT22;10096;51.112;6.776;2023-11-19T10:47:19;14.90;99.90
19868;DHT22;10096;51.112;6.776;2023-11-19T10:49:47;14.90;99.90
19868;DHT22;10096;51.112;6.776;2023-11-19T10:52:18;14.70;99.90
19868;DHT22;10096;51.112;6.776;2023-11-19T10:54:50;14.80;99.90
19868;DHT22;10096;51.112;6.776;2023-11-19T10:57:20;14.90;99.90
19868;DHT22;10096;51.112;6.776;2023-11-19T10:59:52;15.00;99.90
19868;DHT22;10096;51.112;6.776;2023-11-19T11:02:25;15.10;99.90
19868;DHT22;10096;51.112;6.776;2023-11-19T11:04:54;15.10;99.90
19868;DHT22;10096;51.112;6.776;2023-11-19T11:07:22;15.00;99.90
19868;DHT22;10096;51.112;6.776;2023-11-19T11:09:51;15.10;99.90
19868;DHT22;10096;51.112;6.776;2023-11-19T11:12:22;14.90;99.90
19868;DHT22;10096;51.112;6.776;2023-11-19T11:14:53;14.80;99.90
19868;DHT22;10096;51.112;6.776;2023-11-19T11:17:24;14.70;99.90
19868;DHT22;10096;51.112;6.776;2023-11-19T11:19:53;14.70;99.90
19868;DHT22;10096;51.112;6.776;2023-11-19T11:22:21;14.70;99.90
19868;DHT22;10096;51.112;6.776;2023-11-19T11:25:08;14.70;99.90
19868;DHT22;10096;51.112;6.776;2023-11-19T11:28:04;14.80;99.90
19868;DHT22;10096;51.112;6.776;2023-11-19T11:30:46;14.70;99.90
19868;DHT22;10096;51.112;6.776;2023-11-19T11:33:28;14.60;99.90
19868;DHT22;10096;51.112;6.776;2023-11-19T11:36:09;14.60;99.90
19868;DHT22;10096;51.112;6.776;2023-11-19T11:38:40;14.60;99.90
19868;DHT22;10096;51.112;6.776;2023-11-19T11:41:19;14.60;99.90
19868;DHT22;10096;51.112;6.776;2023-11-19T11:43:47;14.60;99.90
19868;DHT22;10096;51.112;6.776;2023-11-19T11:49:25;14.80;99.90
19868;DHT22;10096;51.112;6.776;2023-11-19T11:52:03;14.90;99.90
19868;DHT22;10096;51.112;6.776;2023-11-19T11:54:30;14.90;99.90
19868;DHT22;10096;51.112;6.776;2023-11-19T11:57:08;14.90;99.90
19868;DHT22;10096;51.112;6.776;2023-11-19T11:59:53;15.00;99.90
19868;DHT22;10096;51.112;6.776;2023-11-19T12:02:21;15.10;99.90
19868;DHT22;10096;51.112;6.776;2023-11-19T12:04:51;15.00;99.90
19868;DHT22;10096;51.112;6.776;2023-11-19T12:07:21;15.00;99.90
19868;DHT22;10096;51.112;6.776;2023-11-19T12:09:51;14.80;99.90
19868;DHT22;10096;51.112;6.776;2023-11-19T12:12:21;14.80;99.90
19868;DHT22;10096;51.112;6.776;2023-11-19T12:15:02;14.70;99.90
19868;DHT22;10096;51.112;6.776;2023-11-19T12:17:41;14.70;99.90
19868;DHT22;10096;51.112;6.776;2023-11-19T12:20:11;14.70;99.90
19868;DHT22;10096;51.112;6.776;2023-11-19T12:22:40;14.90;99.90
19868;DHT22;10096;51.112;6.776;2023-11-19T12:25:09;15.10;99.90
19868;DHT22;10096;51.112;6.776;2023-11-19T12:27:38;15.30;99.90
19868;DHT22;10096;51.112;6.776;2023-11-19T12:30:07;15.40;99.90
19868;DHT22;10096;51.112;6.776;2023-11-19T12:32:41;15.40;99.90
19868;DHT22;10096;51.112;6.776;2023-11-19T12:35:11;15.60;99.90
19868;DHT22;10096;51.112;6.776;2023-11-19T12:37:45;15.40;99.90
19868;DHT22;10096;51.112;6.776;2023-11-19T12:40:16;15.10;99.90
19868;DHT22;10096;51.112;6.776;2023-11-19T12:42:45;15.10;99.90
19868;DHT22;10096;51.112;6.776;2023-11-19T12:45:12;14.90;99.90
19868;DHT22;10096;51.112;6.776;2023-11-19T12:47:39;14.90;99.90
19868;DHT22;10096;51.112;6.776;2023-11-19T12:50:07;14.70;99.90
19868;DHT22;10096;51.112;6.776;2023-11-19T12:52:36;14.70;99.90
19868;DHT22;10096;51.112;6.776;2023-11-19T12:55:05;14.70;99.90
19868;DHT22;10096;51.112;6.776;2023-11-19T12:57:38;14.70;99.90
19868;DHT22;10096;51.112;6.776;2023-11-19T13:00:06;14.80;99.90
19868;DHT22;10096;51.112;6.776;2023-11-19T13:02:47;14.90;99.90
19868;DHT22;10096;51.112;6.776;2023-11-19T13:05:30;15.00;99.90
19868;DHT22;10096;51.112;6.776;2023-11-19T13:08:02;15.10;99.90
19868;DHT22;10096;51.112;6.776;2023-11-19T13:10:30;14.80;99.90
19868;DHT22;10096;51.112;6.776;2023-11-19T13:13:09;15.20;99.90
19868;DHT22;10096;51.112;6.776;2023-11-19T13:15:36;15.30;99.90
19868;DHT22;10096;51.112;6.776;2023-11-19T13:18:05;15.30;99.90
19868;DHT22;10096;51.112;6.776;2023-11-19T13:20:32;15.30;99.90
19868;DHT22;10096;51.112;6.776;2023-11-19T13:23:02;15.30;99.90
19868;DHT22;10096;51.112;6.776;2023-11-19T13:25:30;15.30;99.90
19868;DHT22;10096;51.112;6.776;2023-11-19T13:27:58;15.00;99.90
19868;DHT22;10096;51.112;6.776;2023-11-19T13:30:26;15.00;99.90
19868;DHT22;10096;51.112;6.776;2023-11-19T13:32:53;14.90;99.90
19868;DHT22;10096;51.112;6.776;2023-11-19T13:35:21;14.80;99.90
19868;DHT22;10096;51.112;6.776;2023-11-19T13:37:48;14.80;99.90
19868;DHT22;10096;51.112;6.776;2023-11-19T13:40:16;14.90;99.90
19868;DHT22;10096;51.112;6.776;2023-11-19T13:42:44;14.90;99.90
19868;DHT22;10096;51.112;6.776;2023-11-19T13:45:16;15.00;99.90
19868;DHT22;10096;51.112;6.776;2023-11-19T13:47:47;15.00;99.90
19868;DHT22;10096;51.112;6.776;2023-11-19T13:50:15;14.90;99.90
19868;DHT22;10096;51.112;6.776;2023-11-19T13:52:44;15.00;99.90
19868;DHT22;10096;51.112;6.776;2023-11-19T13:55:15;14.80;99.90
19868;DHT22;10096;51.112;6.776;2023-11-19T13:57:44;14.80;99.90
19868;DHT22;10096;51.112;6.776;2023-11-19T14:00:13;14.60;99.90
19868;DHT22;10096;51.112;6.776;2023-11-19T14:02:42;14.50;99.90
19868;DHT22;10096;51.112;6.776;2023-11-19T14:05:09;14.50;99.90
19868;DHT22;10096;51.112;6.776;2023-11-19T14:07:37;14.50;99.90
19868;DHT22;10096;51.112;6.776;2023-11-19T14:10:05;14.50;99.90
19868;DHT22;10096;51.112;6.776;2023-11-19T14:12:36;14.50;99.90
19868;DHT22;10096;51.112;6.776;2023-11-19T14:15:04;14.60;99.90
19868;DHT22;10096;51.112;6.776;2023-11-19T14:17:31;14.30;99.90
19868;DHT22;10096;51.112;6.776;2023-11-19T14:20:01;14.30;99.90
19868;DHT22;10096;51.112;6.776;2023-11-19T14:22:30;14.20;99.90
19868;DHT22;10096;51.112;6.776;2023-11-19T14:24:59;14.30;99.90
19868;DHT22;10096;51.112;6.776;2023-11-19T14:27:26;14.20;99.90
19868;DHT22;10096;51.112;6.776;2023-11-19T14:29:54;14.10;1.00
19868;DHT22;10096;51.112;6.776;2023-11-19T14:32:21;14.30;1.00
19868;DHT22;10096;51.112;6.776;2023-11-19T14:34:49;14.30;1.00
19868;DHT22;10096;51.112;6.776;2023-11-19T14:37:16;14.10;1.00
19868;DHT22;10096;51.112;6.776;2023-11-19T14:39:43;13.90;1.00
19868;DHT22;10096;51.112;6.776;2023-11-19T14:42:12;14.10;1.00
19868;DHT22;10096;51.112;6.776;2023-11-19T14:44:39;14.20;1.00
19868;DHT22;10096;51.112;6.776;2023-11-19T14:47:10;14.20;99.90
19868;DHT22;10096;51.112;6.776;2023-11-19T14:49:37;14.40;99.90
19868;DHT22;10096;51.112;6.776;2023-11-19T14:52:05;14.20;99.90
19868;DHT22;10096;51.112;6.776;2023-11-19T14:54:33;14.20;99.90
19868;DHT22;10096;51.112;6.776;2023-11-19T14:57:00;14.20;99.90
19868;DHT22;10096;51.112;6.776;2023-11-19T14:59:28;14.30;99.90
19868;DHT22;10096;51.112;6.776;2023-11-19T15:01:55;14.00;99.90
19868;DHT22;10096;51.112;6.776;2023-11-19T15:04:24;14.20;99.90
19868;DHT22;10096;51.112;6.776;2023-11-19T15:06:52;13.90;99.90
19868;DHT22;10096;51.112;6.776;2023-11-19T15:09:19;13.90;99.90
19868;DHT22;10096;51.112;6.776;2023-11-19T15:11:46;13.90;1.00
19868;DHT22;10096;51.112;6.776;2023-11-19T15:14:13;13.90;1.00
19868;DHT22;10096;51.112;6.776;2023-11-19T15:16:42;13.60;1.00
19868;DHT22;10096;51.112;6.776;2023-11-19T15:19:09;13.50;1.00
19868;DHT22;10096;51.112;6.776;2023-11-19T15:21:39;13.40;1.00
19868;DHT22;10096;51.112;6.776;2023-11-19T15:24:08;13.50;1.00
19868;DHT22;10096;51.112;6.776;2023-11-19T15:26:37;13.30;1.00
19868;DHT22;10096;51.112;6.776;2023-11-19T15:29:05;13.10;1.00
19868;DHT22;10096;51.112;6.776;2023-11-19T15:31:33;13.20;1.00
19868;DHT22;10096;51.112;6.776;2023-11-19T15:34:00;13.30;1.00
19868;DHT22;10096;51.112;6.776;2023-11-19T15:36:28;13.00;1.00
19868;DHT22;10096;51.112;6.776;2023-11-19T15:38:57;13.00;1.00
19868;DHT22;10096;51.112;6.776;2023-11-19T15:41:24;13.20;1.00
19868;DHT22;10096;51.112;6.776;2023-11-19T15:43:53;13.00;1.00
19868;DHT22;10096;51.112;6.776;2023-11-19T15:46:20;13.00;1.00
19868;DHT22;10096;51.112;6.776;2023-11-19T15:48:49;13.00;1.00